Time;durP1;ratioP1;P1;durP2;ratioP2;P2;SDS_P1;SDS_P2;PMS_P1;PMS_P2;Temp;Humidity;BMP_temperature;BMP_pressure;BME280_temperature;BME280_humidity;BME280_pressure;Samples;Min_cycle;Max_cycle;Signal;HPM_P1;HPM_P2
2023/10/22 00:07:02;;;;;;;0.45;0.35;;;;;;;12.80;74.26;100073.41;15686962;28;20439;-49
2023/10/22 00:14:37;;;;;;;0.00;0.00;;;;;;;12.85;74.13;100090.47;15685550;28;20535;-49
2023/10/22 00:22:12;;;;;;;0.40;0.40;;;;;;;12.16;76.33;100109.28;15711218;28;20223;-49
2023/10/22 00:29:46;;;;;;;0.88;0.70;;;;;;;11.67;78.72;100124.00;15703411;28;20069;-48
2023/10/22 00:37:19;;;;;;;1.23;1.13;;;;;;;11.92;78.31;100113.03;15683807;28;20448;-49
2023/10/22 00:44:53;;;;;;;0.45;0.45;;;;;;;12.59;75.76;100109.88;15697047;28;20037;-50
2023/10/22 00:52:28;;;;;;;0.10;0.10;;;;;;;12.79;75.29;100109.50;15680870;28;20053;-50
2023/10/22 01:00:04;;;;;;;0.00;0.00;;;;;;;13.00;73.94;100095.31;15682932;28;20029;-48
2023/10/22 01:07:40;;;;;;;0.28;0.28;;;;;;;13.03;73.63;100100.25;15677074;28;20456;-50
2023/10/22 01:15:15;;;;;;;1.25;0.98;;;;;;;13.03;73.60;100092.16;15685952;28;20033;-51
2023/10/22 01:22:49;;;;;;;0.30;0.25;;;;;;;12.82;74.04;100069.41;15680586;28;20045;-49
2023/10/22 01:30:24;;;;;;;0.17;0.17;;;;;;;12.55;75.09;100065.69;15702582;28;20041;-49
2023/10/22 01:37:57;;;;;;;0.15;0.15;;;;;;;12.59;75.11;100074.88;15710483;28;20044;-49
2023/10/22 01:45:32;;;;;;;0.20;0.20;;;;;;;13.00;74.11;100081.84;15696211;28;20486;-49
2023/10/22 01:53:05;;;;;;;1.98;0.95;;;;;;;12.64;75.88;100096.56;15684890;28;20639;-49
2023/10/22 02:00:40;;;;;;;0.65;0.50;;;;;;;12.84;75.03;100094.25;15684841;28;20128;-49
2023/10/22 02:08:13;;;;;;;0.00;0.00;;;;;;;12.86;74.58;100113.66;15676876;28;20041;-49
2023/10/22 02:15:48;;;;;;;0.38;0.38;;;;;;;12.22;78.03;100119.13;15686122;28;20061;-50
2023/10/22 02:23:21;;;;;;;0.35;0.35;;;;;;;12.08;78.42;100112.34;15668621;28;20049;-50
2023/10/22 02:30:56;;;;;;;0.00;0.00;;;;;;;12.36;77.72;100108.91;15687175;28;20041;-47
2023/10/22 02:38:31;;;;;;;0.60;0.60;;;;;;;12.58;77.59;100092.09;15681249;28;20045;-50
2023/10/22 02:46:05;;;;;;;0.00;0.00;;;;;;;12.51;77.60;100097.63;15698753;28;20048;-48
2023/10/22 02:53:39;;;;;;;0.35;0.35;;;;;;;12.47;78.60;100102.66;15665932;28;20041;-50
2023/10/22 03:01:15;;;;;;;0.75;0.50;;;;;;;12.91;76.66;100102.97;15681412;28;20039;-50
2023/10/22 03:08:48;;;;;;;1.00;0.50;;;;;;;12.50;79.83;100128.31;15705815;28;20489;-50
2023/10/22 03:16:23;;;;;;;0.00;0.00;;;;;;;12.68;78.26;100141.59;15664231;28;20601;-47
2023/10/22 03:23:57;;;;;;;0.00;0.00;;;;;;;12.70;78.56;100146.75;15681791;28;20111;-49
2023/10/22 03:31:31;;;;;;;0.50;0.47;;;;;;;12.94;77.61;100139.41;15672771;28;20041;-49
2023/10/22 03:39:06;;;;;;;0.00;0.00;;;;;;;12.91;77.13;100142.56;15693114;28;20149;-50
2023/10/22 03:46:41;;;;;;;0.43;0.40;;;;;;;12.76;77.45;100153.84;15684558;28;20049;-49
2023/10/22 03:54:14;;;;;;;0.00;0.00;;;;;;;12.82;77.53;100146.69;15700090;28;20520;-50
2023/10/22 04:01:49;;;;;;;0.10;0.10;;;;;;;12.17;80.07;100153.97;15708929;28;20041;-50
2023/10/22 04:09:27;;;;;;;0.17;0.17;;;;;;;12.70;78.52;100152.13;15705423;28;20040;-51
2023/10/22 04:17:01;;;;;;;0.05;0.05;;;;;;;12.91;77.88;100151.47;15701015;28;20055;-50
2023/10/22 04:24:38;;;;;;;0.10;0.10;;;;;;;13.06;77.08;100150.97;15691526;28;20064;-50
2023/10/22 04:32:13;;;;;;;0.25;0.15;;;;;;;13.00;77.43;100154.59;15691078;28;20041;-51
2023/10/22 04:39:47;;;;;;;0.08;0.08;;;;;;;12.60;78.83;100171.59;15683933;28;20045;-50
2023/10/22 04:47:23;;;;;;;0.00;0.00;;;;;;;12.91;77.89;100172.19;15694087;28;20059;-48
2023/10/22 04:54:57;;;;;;;0.00;0.00;;;;;;;12.98;77.58;100171.00;15726115;28;20059;-50
2023/10/22 05:02:33;;;;;;;0.10;0.10;;;;;;;13.06;77.33;100177.91;15734180;28;20085;-49
2023/10/22 05:10:07;;;;;;;0.05;0.05;;;;;;;13.26;76.33;100181.00;15725955;28;20041;-49
2023/10/22 05:17:44;;;;;;;0.38;0.38;;;;;;;12.99;77.17;100179.91;15722689;28;20139;-49
2023/10/22 05:25:20;;;;;;;0.00;0.00;;;;;;;13.21;76.22;100191.66;15725446;28;20049;-52
2023/10/22 05:32:54;;;;;;;0.55;0.55;;;;;;;12.91;77.15;100205.34;15724739;28;20114;-51
2023/10/22 05:40:27;;;;;;;0.00;0.00;;;;;;;12.82;78.19;100206.75;15727228;28;20099;-48
2023/10/22 05:48:03;;;;;;;0.22;0.22;;;;;;;12.91;77.42;100213.41;15738326;28;20071;-47
2023/10/22 05:55:36;;;;;;;0.35;0.20;;;;;;;12.68;78.18;100206.22;15691280;28;20401;-52
2023/10/22 06:03:11;;;;;;;0.40;0.40;;;;;;;12.40;79.86;100220.44;15731153;28;20048;-47
2023/10/22 06:10:46;;;;;;;0.28;0.28;;;;;;;12.73;77.68;100222.50;15722963;28;20040;-47
2023/10/22 06:18:20;;;;;;;0.00;0.00;;;;;;;13.17;75.96;100220.13;15710414;28;20044;-49
2023/10/22 06:25:53;;;;;;;0.00;0.00;;;;;;;12.76;76.74;100229.25;15737267;28;20052;-48
2023/10/22 06:33:28;;;;;;;0.55;0.13;;;;;;;12.93;76.30;100230.16;15729425;28;20383;-49
2023/10/22 06:41:01;;;;;;;0.20;0.13;;;;;;;12.43;78.62;100235.28;15729640;28;20132;-47
2023/10/22 06:48:36;;;;;;;0.00;0.00;;;;;;;12.59;77.93;100245.34;15736798;28;20041;-49
2023/10/22 06:56:11;;;;;;;0.05;0.05;;;;;;;12.81;77.05;100252.78;15702401;28;20067;-47
2023/10/22 07:03:47;;;;;;;1.25;0.52;;;;;;;12.90;76.80;100252.19;15728741;28;20048;-49
2023/10/22 07:11:20;;;;;;;0.00;0.00;;;;;;;12.42;78.54;100237.16;15736678;28;20035;-50
2023/10/22 07:18:56;;;;;;;0.10;0.10;;;;;;;12.47;78.58;100233.75;15719630;28;20067;-51
2023/10/22 07:26:29;;;;;;;0.43;0.32;;;;;;;12.59;78.72;100248.03;15731863;28;20119;-48
2023/10/22 07:34:04;;;;;;;0.52;0.38;;;;;;;11.97;80.55;100253.84;15722040;28;20079;-51
2023/10/22 07:41:37;;;;;;;0.05;0.05;;;;;;;12.21;81.16;100253.88;15732468;28;20460;-46
2023/10/22 07:49:11;;;;;;;0.00;0.00;;;;;;;12.44;79.98;100261.13;15747564;28;20501;-48
2023/10/22 07:56:44;;;;;;;2.05;1.10;;;;;;;12.63;79.61;100253.75;15738830;28;20044;-52
2023/10/22 08:04:19;;;;;;;0.00;0.00;;;;;;;12.50;79.56;100252.94;15738045;28;20052;-48
2023/10/22 08:11:54;;;;;;;10.32;1.00;;;;;;;12.85;78.53;100262.03;15729517;28;20116;-48
2023/10/22 08:19:29;;;;;;;0.00;0.00;;;;;;;12.93;78.87;100259.81;15725590;28;20048;-48
2023/10/22 08:27:04;;;;;;;0.20;0.20;;;;;;;13.06;78.83;100269.50;15736495;28;20044;-49
2023/10/22 08:34:39;;;;;;;0.00;0.00;;;;;;;12.78;78.40;100267.56;15736818;28;20444;-49
2023/10/22 08:42:16;;;;;;;0.00;0.00;;;;;;;13.18;77.86;100283.75;15715368;28;20049;-49
2023/10/22 08:49:55;;;;;;;0.00;0.00;;;;;;;13.55;76.04;100269.94;15739110;28;20515;-49
2023/10/22 08:57:29;;;;;;;0.47;0.47;;;;;;;13.48;75.91;100277.38;15744705;28;20048;-49
2023/10/22 09:05:07;;;;;;;0.00;0.00;;;;;;;13.75;75.72;100275.69;15724242;28;20052;-49
2023/10/22 09:12:40;;;;;;;0.00;0.00;;;;;;;13.75;75.24;100277.56;15729621;28;20036;-51
2023/10/22 09:20:23;;;;;;;0.08;0.08;;;;;;;14.21;73.73;100273.78;15667671;28;20037;-47
2023/10/22 09:27:56;;;;;;;3.67;1.60;;;;;;;14.13;73.72;100267.97;15679856;28;20132;-50
2023/10/22 09:35:31;;;;;;;0.95;0.63;;;;;;;14.49;71.57;100278.28;15677952;28;20045;-49
2023/10/22 09:43:06;;;;;;;0.10;0.10;;;;;;;14.24;72.72;100277.88;15688176;28;20053;-50
2023/10/22 09:50:46;;;;;;;1.90;0.43;;;;;;;14.93;70.76;100281.09;15693357;28;20099;-50
2023/10/22 09:58:25;;;;;;;0.00;0.00;;;;;;;15.52;68.04;100281.25;15694199;28;20041;-46
2023/10/22 10:06:00;;;;;;;0.00;0.00;;;;;;;16.43;63.62;100277.78;15678234;28;20497;-47
2023/10/22 10:13:35;;;;;;;0.10;0.10;;;;;;;16.51;63.91;100273.78;15683114;28;20053;-46
2023/10/22 10:21:39;;;;;;;0.20;0.20;;;;;;;17.47;61.18;100264.47;15681286;28;20048;-47
2023/10/22 10:29:15;;;;;;;0.00;0.00;;;;;;;16.52;62.67;100268.06;15688126;28;20068;-47
2023/10/22 10:36:50;;;;;;;0.00;0.00;;;;;;;15.82;60.39;100269.97;15704550;22;20040;-51
2023/10/22 10:44:24;;;;;;;0.00;0.00;;;;;;;16.53;60.39;100258.06;15730989;28;20055;-49
2023/10/22 10:52:00;;;;;;;0.00;0.00;;;;;;;16.98;56.82;100249.38;15717511;28;20103;-46
2023/10/22 10:59:36;;;;;;;0.00;0.00;;;;;;;16.96;55.91;100258.84;15685368;28;20045;-48
2023/10/22 11:07:09;;;;;;;0.00;0.00;;;;;;;18.45;52.99;100252.59;15719109;28;20079;-48
2023/10/22 11:14:44;;;;;;;0.00;0.00;;;;;;;19.08;52.06;100253.00;15712595;28;20131;-45
2023/10/22 11:22:17;;;;;;;0.22;0.17;;;;;;;18.85;50.18;100263.41;15705145;28;20041;-45
2023/10/22 11:29:51;;;;;;;0.00;0.00;;;;;;;18.32;51.49;100235.75;15727354;28;20048;-49
2023/10/22 11:37:30;;;;;;;0.38;0.28;;;;;;;18.80;51.95;100268.06;15717855;28;20056;-50
2023/10/22 11:45:07;;;;;;;0.00;0.00;;;;;;;19.72;48.05;100235.78;15717956;28;20109;-47
2023/10/22 11:52:59;;;;;;;0.00;0.00;;;;;;;19.64;47.81;100281.88;15719151;28;20075;-47
2023/10/22 12:00:33;;;;;;;0.30;0.25;;;;;;;19.46;49.52;100278.66;15662730;28;20046;-48
2023/10/22 12:08:06;;;;;;;0.00;0.00;;;;;;;18.28;52.21;100293.66;15605780;28;20099;-48
2023/10/22 12:15:41;;;;;;;0.15;0.15;;;;;;;19.40;48.00;100298.00;15645490;28;20041;-48
2023/10/22 12:23:14;;;;;;;0.00;0.00;;;;;;;19.16;47.57;100295.94;15680267;28;20045;-47
2023/10/22 12:30:48;;;;;;;0.52;0.10;;;;;;;20.66;46.40;100303.72;15712519;28;20463;-47
2023/10/22 12:38:22;;;;;;;0.32;0.20;;;;;;;19.39;48.70;100297.19;15695436;28;20060;-51
2023/10/22 12:45:56;;;;;;;0.00;0.00;;;;;;;17.57;54.16;100316.03;15657250;28;20053;-47
2023/10/22 12:53:30;;;;;;;0.00;0.00;;;;;;;18.73;51.56;100313.75;15652917;28;20041;-47
2023/10/22 13:01:07;;;;;;;0.00;0.00;;;;;;;18.82;51.03;100336.56;15656772;28;20092;-47
2023/10/22 13:08:41;;;;;;;0.00;0.00;;;;;;;18.85;50.34;100334.13;15646787;28;20485;-49
2023/10/22 13:16:16;;;;;;;0.00;0.00;;;;;;;18.03;53.48;100335.19;15664659;28;20473;-48
2023/10/22 13:23:49;;;;;;;0.70;0.25;;;;;;;17.52;54.76;100356.75;15632531;28;20481;-48
2023/10/22 13:31:23;;;;;;;0.00;0.00;;;;;;;17.94;54.45;100369.38;15662661;28;20190;-47
2023/10/22 13:38:56;;;;;;;0.10;0.10;;;;;;;17.24;55.96;100379.66;15683002;28;20135;-49
2023/10/22 13:46:31;;;;;;;0.63;0.40;;;;;;;17.46;55.78;100384.94;15707338;28;20132;-49
2023/10/22 13:54:05;;;;;;;0.00;0.00;;;;;;;17.31;55.97;100388.41;15706548;28;20048;-50
2023/10/22 14:01:39;;;;;;;0.00;0.00;;;;;;;16.98;56.83;100405.84;15708893;28;20102;-53
2023/10/22 14:09:12;;;;;;;0.00;0.00;;;;;;;17.21;56.20;100401.91;15702144;28;20048;-50
2023/10/22 14:16:47;;;;;;;0.00;0.00;;;;;;;16.92;55.88;100409.56;15686809;28;20110;-46
2023/10/22 14:24:21;;;;;;;0.08;0.08;;;;;;;16.45;56.51;100367.72;15616619;28;20163;-47
2023/10/22 14:31:56;;;;;;;0.00;0.00;;;;;;;16.29;57.55;100433.66;15591394;28;20405;-48
2023/10/22 14:39:29;;;;;;;1.35;0.82;;;;;;;16.02;59.25;100445.28;15634582;28;20037;-46
2023/10/22 14:47:04;;;;;;;0.22;0.22;;;;;;;16.85;57.85;100441.53;15638226;28;20052;-50
2023/10/22 14:54:37;;;;;;;0.00;0.00;;;;;;;16.72;58.51;100449.00;15660708;28;20371;-46
2023/10/22 15:02:12;;;;;;;0.05;0.05;;;;;;;16.59;58.34;100471.88;15680000;28;20044;-49
2023/10/22 15:09:47;;;;;;;0.00;0.00;;;;;;;16.12;60.11;100462.72;15690377;28;20036;-46
2023/10/22 15:17:22;;;;;;;0.00;0.00;;;;;;;16.19;60.05;100485.03;15651203;28;20040;-53
2023/10/22 15:24:55;;;;;;;0.00;0.00;;;;;;;15.65;61.52;100485.69;15613737;28;20049;-47
2023/10/22 15:32:30;;;;;;;;;;;;;;;15.47;61.88;100496.75;15613791;28;20033;-53
2023/10/22 15:40:05;;;;;;;0.00;0.00;;;;;;;15.17;62.89;100502.53;15625307;28;19983;-50
2023/10/22 15:47:39;;;;;;;0.00;0.00;;;;;;;15.34;62.49;100518.75;15630745;28;20057;-47
2023/10/22 15:55:13;;;;;;;0.00;0.00;;;;;;;14.84;63.76;100524.97;15624301;28;20052;-47
2023/10/22 16:02:48;;;;;;;0.47;0.20;;;;;;;14.58;64.66;100534.47;15626094;28;20117;-48
2023/10/22 16:10:22;;;;;;;0.28;0.28;;;;;;;14.41;65.50;100543.34;15623241;28;20053;-48
2023/10/22 16:17:57;;;;;;;0.00;0.00;;;;;;;14.71;64.55;100555.81;15629574;28;20411;-50
2023/10/22 16:25:31;;;;;;;0.30;0.22;;;;;;;14.54;64.94;100553.84;15604885;28;20060;-49
2023/10/22 16:33:06;;;;;;;0.20;0.20;;;;;;;14.55;65.44;100552.00;15620837;28;20073;-54
2023/10/22 16:40:40;;;;;;;0.57;0.55;;;;;;;14.72;64.51;100574.47;15656500;28;20426;-49
2023/10/22 16:48:16;;;;;;;0.30;0.20;;;;;;;14.56;65.19;100588.75;15633787;28;20044;-51
2023/10/22 16:55:50;;;;;;;0.43;0.10;;;;;;;14.07;67.26;100599.03;15644606;28;20049;-50
2023/10/22 17:03:24;;;;;;;;;;;;;;;14.13;67.61;100610.75;15648781;28;20570;-52
2023/10/22 17:10:58;;;;;;;0.10;0.10;;;;;;;14.48;66.41;100614.25;15697824;28;20303;-52
2023/10/22 17:18:32;;;;;;;;;;;;;;;14.42;66.74;100620.59;15671648;28;20033;-49
2023/10/22 17:26:07;;;;;;;0.10;0.10;;;;;;;14.18;67.43;100625.22;15697376;28;19928;-52
2023/10/22 17:33:42;;;;;;;0.20;0.20;;;;;;;13.91;66.77;100614.06;15693450;28;20139;-49
2023/10/22 17:41:17;;;;;;;0.00;0.00;;;;;;;14.44;65.72;100636.53;15668431;28;20087;-50
2023/10/22 17:48:52;;;;;;;0.00;0.00;;;;;;;14.36;66.61;100653.94;15620039;28;20069;-49
2023/10/22 17:56:28;;;;;;;1.85;0.20;;;;;;;13.96;67.84;100672.72;15617158;28;20068;-52
2023/10/22 18:04:05;;;;;;;0.45;0.35;;;;;;;14.55;66.18;100673.56;15617418;28;20045;-50
2023/10/22 18:11:38;;;;;;;0.60;0.25;;;;;;;14.48;66.82;100683.66;15616294;28;20076;-55
2023/10/22 18:19:13;;;;;;;;;;;;;;;13.72;68.99;100696.19;15611590;28;20042;-49
2023/10/22 18:26:46;;;;;;;0.00;0.00;;;;;;;13.25;71.23;100694.19;15615599;28;19932;-51
2023/10/22 18:34:20;;;;;;;1.15;0.17;;;;;;;13.32;71.87;100712.94;15596969;28;20052;-51
2023/10/22 18:41:53;;;;;;;0.10;0.10;;;;;;;13.38;72.19;100716.59;15614711;28;20393;-52
2023/10/22 18:49:28;;;;;;;0.70;0.52;;;;;;;13.42;71.68;100725.88;15614449;28;20513;-53
2023/10/22 18:57:02;;;;;;;0.03;0.03;;;;;;;14.03;69.50;100735.50;15613916;28;20118;-51
2023/10/22 19:04:37;;;;;;;0.05;0.05;;;;;;;13.88;69.78;100735.13;15622226;28;20049;-50
2023/10/22 19:12:10;;;;;;;0.10;0.10;;;;;;;13.57;70.62;100720.88;15613762;28;20079;-49
2023/10/22 19:19:48;;;;;;;;;;;;;;;13.46;70.64;100718.97;15618216;28;20549;-50
2023/10/22 19:27:21;;;;;;;0.10;0.10;;;;;;;13.74;69.74;100708.38;15612378;28;19967;-52
2023/10/22 19:34:58;;;;;;;0.00;0.00;;;;;;;13.68;69.46;100706.59;15612155;28;20046;-50
2023/10/22 19:42:31;;;;;;;0.00;0.00;;;;;;;13.78;68.55;100717.63;15612945;28;20049;-52
2023/10/22 19:50:08;;;;;;;0.93;0.52;;;;;;;13.88;67.62;100717.06;15612268;28;20081;-48
2023/10/22 19:57:41;;;;;;;0.00;0.00;;;;;;;13.85;67.42;100722.09;15619893;28;20067;-49
2023/10/22 20:05:15;;;;;;;;;;;;;;;13.44;69.31;100734.56;15594862;28;20413;-52
2023/10/22 20:12:48;;;;;;;3.92;1.60;;;;;;;13.45;69.41;100747.00;15612727;28;19928;-48
2023/10/22 20:20:23;;;;;;;0.05;0.05;;;;;;;13.48;69.30;100760.03;15634587;28;20197;-50
2023/10/22 20:27:58;;;;;;;0.00;0.00;;;;;;;13.70;67.33;100771.09;15622236;28;20072;-51
2023/10/22 20:35:36;;;;;;;0.00;0.00;;;;;;;13.68;67.87;100771.34;15621574;28;20069;-53
2023/10/22 20:43:10;;;;;;;0.00;0.00;;;;;;;13.61;67.79;100776.00;15624962;28;20096;-51
2023/10/22 20:50:45;;;;;;;;;;;;;;;13.40;69.26;100788.13;15629304;28;20072;-51
2023/10/22 20:58:18;;;;;;;0.00;0.00;;;;;;;13.15;70.07;100790.91;15619993;28;19921;-47
2023/10/22 21:05:52;;;;;;;0.00;0.00;;;;;;;13.75;68.21;100793.63;15602072;28;20054;-50
2023/10/22 21:13:25;;;;;;;0.20;0.20;;;;;;;13.63;68.73;100800.88;15610248;28;20449;-50
2023/10/22 21:21:01;;;;;;;;;;;;;;;13.29;69.61;100794.28;15633211;28;20107;-47
2023/10/22 21:28:34;;;;;;;0.00;0.00;;;;;;;13.79;68.52;100799.41;15619402;28;19921;-50
2023/10/22 21:36:09;;;;;;;0.00;0.00;;;;;;;13.76;68.50;100806.09;15617289;28;20053;-47
2023/10/22 21:43:43;;;;;;;0.00;0.00;;;;;;;13.65;68.61;100801.44;15628046;28;20041;-49
2023/10/22 21:51:17;;;;;;;0.10;0.10;;;;;;;13.62;68.47;100812.72;15617257;28;20453;-48
2023/10/22 21:58:51;;;;;;;0.00;0.00;;;;;;;13.49;68.00;100820.97;15616732;28;20053;-51
2023/10/22 22:06:25;;;;;;;0.00;0.00;;;;;;;13.27;68.76;100821.44;15618406;28;20055;-49
2023/10/22 22:14:03;;;;;;;0.00;0.00;;;;;;;13.15;70.09;100834.03;15616683;28;20065;-51
2023/10/22 22:21:37;;;;;;;0.00;0.00;;;;;;;13.19;70.44;100821.72;15628139;28;20053;-48
2023/10/22 22:29:11;;;;;;;0.00;0.00;;;;;;;13.16;69.74;100824.06;15615420;28;20049;-51
2023/10/22 22:36:47;;;;;;;0.00;0.00;;;;;;;13.30;69.82;100824.75;15624378;28;20049;-51
2023/10/22 22:44:20;;;;;;;0.00;0.00;;;;;;;13.06;70.16;100831.84;15596737;28;20478;-49
2023/10/22 22:51:54;;;;;;;0.40;0.30;;;;;;;13.10;70.11;100830.31;15595071;28;20103;-50
2023/10/22 22:59:27;;;;;;;0.00;0.00;;;;;;;13.06;70.68;100829.97;15611520;28;20485;-48
2023/10/22 23:07:02;;;;;;;0.10;0.10;;;;;;;13.12;70.08;100833.63;15614338;28;20045;-50
2023/10/22 23:14:35;;;;;;;0.17;0.10;;;;;;;12.90;70.21;100833.25;15617876;28;20360;-48
2023/10/22 23:22:13;;;;;;;0.00;0.00;;;;;;;12.51;69.99;100787.63;15621322;28;20457;-49
2023/10/22 23:29:46;;;;;;;0.43;0.43;;;;;;;12.48;70.30;100835.72;15613434;28;20391;-50
2023/10/22 23:37:21;;;;;;;0.00;0.00;;;;;;;12.35;70.11;100843.91;15620687;28;20045;-47
2023/10/22 23:44:54;;;;;;;0.00;0.00;;;;;;;12.19;70.27;100842.56;15612974;28;20104;-48
2023/10/22 23:52:29;;;;;;;0.80;0.63;;;;;;;12.08;70.44;100851.34;15603954;28;20053;-48
